^^
Station Historical Data
Daily Summary for October 16, 2021 Units:  Metric    English   Both
Daily Weekly Monthly Yearly
  High: Low: Average:
Temperature: 14.8 °C 10.6 °C 12.9 °C
Dew Point: 12.8 °C 6.3 °C 9.1 °C
Humidity: 88% 61% 78%
Wind Speed: 14.5km/h 1.6km/h 7.6km/h
Wind Gust: 24.1km/h - -
Wind- - West
Pressure: 1009.7 hPa 1005.3 hPa -
Precipitation: 6.1 mm    
 
 
Tabular Data for October 16, 2021
Time Temperature Dew Point Pressure Wind Wind Speed Wind Gust Humidity Rainfall Rate (Hourly) solar
00:00 14.7 °C 12.7 °C 1007.3 hPa NNW 1.6 km/h 1.6 km/h 88% 0 mm 0 W/m2
00:05 14.7 °C 12.8 °C 1007 hPa NNW 1.6 km/h 3.2 km/h 88% 0 mm 0 W/m2
00:10 14.7 °C 12.8 °C 1007 hPa NW 3.2 km/h 3.2 km/h 88% 0 mm 0 W/m2
00:15 14.7 °C 12.8 °C 1007 hPa NW 3.2 km/h 3.2 km/h 88% 0 mm 0 W/m2
00:20 14.7 °C 12.7 °C 1006.7 hPa NNW 3.2 km/h 3.2 km/h 88% 0 mm 0 W/m2
00:25 14.7 °C 12.7 °C 1006.7 hPa NNW 3.2 km/h 3.2 km/h 88% 0 mm 0 W/m2
00:30 14.6 °C 12.7 °C 1006.7 hPa NNW 3.2 km/h 4.8 km/h 88% 0 mm 0 W/m2
00:35 14.6 °C 12.4 °C 1006.7 hPa WSW 3.2 km/h 4.8 km/h 87% 0 mm 0 W/m2
00:40 14.6 °C 12.4 °C 1006.3 hPa NNE 3.2 km/h 3.2 km/h 87% 0 mm 0 W/m2
00:45 14.6 °C 12.4 °C 1006.3 hPa NNW 3.2 km/h 4.8 km/h 87% 0 mm 0 W/m2
00:50 14.6 °C 12.4 °C 1006.3 hPa North 3.2 km/h 6.4 km/h 87% 0 mm 0 W/m2
00:55 14.6 °C 12.4 °C 1006.3 hPa WNW 3.2 km/h 6.4 km/h 87% 0 mm 0 W/m2
01:00 14.6 °C 12.4 °C 1006.3 hPa WNW 3.2 km/h 3.2 km/h 87% 0 mm 0 W/m2
01:05 14.6 °C 12.4 °C 1006.3 hPa NE 1.6 km/h 3.2 km/h 87% 0 mm 0 W/m2
01:10 14.7 °C 12.5 °C 1006 hPa NNW 3.2 km/h 4.8 km/h 87% 0 mm 0 W/m2
01:15 14.7 °C 12.5 °C 1005.6 hPa WSW 3.2 km/h 4.8 km/h 87% 0 mm 0 W/m2
01:20 14.6 °C 12.3 °C 1005.6 hPa SW 3.2 km/h 3.2 km/h 86% 0 mm 0 W/m2
01:25 14.6 °C 12.3 °C 1006 hPa NNE 3.2 km/h 4.8 km/h 86% 0 mm 0 W/m2
01:30 14.7 °C 12.3 °C 1005.3 hPa NW 4.8 km/h 4.8 km/h 86% 0 mm 0 W/m2
01:35 14.8 °C 12.6 °C 1005.6 hPa NNW 4.8 km/h 4.8 km/h 87% 0 mm 0 W/m2
01:40 14.8 °C 12.7 °C 1006 hPa NNW 4.8 km/h 4.8 km/h 87% 0 mm 0 W/m2
01:45 14.8 °C 12.6 °C 1006 hPa NNW 4.8 km/h 4.8 km/h 87% 0 mm 0 W/m2
01:50 14.8 °C 12.7 °C 1006 hPa NNW 4.8 km/h 4.8 km/h 87% 0 mm 0 W/m2
01:55 14.8 °C 12.6 °C 1006.3 hPa NW 3.2 km/h 4.8 km/h 87% 0 mm 0 W/m2
02:00 14.8 °C 12.6 °C 1006.3 hPa NE 3.2 km/h 4.8 km/h 87% 0 mm 0 W/m2
02:05 14.7 °C 12.6 °C 1006.3 hPa ENE 3.2 km/h 4.8 km/h 87% 0 mm 0 W/m2
02:10 14.7 °C 12.6 °C 1006.3 hPa North 3.2 km/h 6.4 km/h 87% 0 mm 0 W/m2
02:15 14.7 °C 12.3 °C 1006.7 hPa NNW 3.2 km/h 6.4 km/h 86% 0 mm 0 W/m2
02:20 14.7 °C 12.3 °C 1006.7 hPa NNW 3.2 km/h 3.2 km/h 86% 0 mm 0 W/m2
02:25 14.6 °C 12.3 °C 1006.7 hPa NNW 3.2 km/h 8 km/h 86% 0 mm 0 W/m2
02:30 14.6 °C 12.3 °C 1006.7 hPa NNW 4.8 km/h 4.8 km/h 86% 0 mm 0 W/m2
02:35 14.6 °C 12.3 °C 1006.3 hPa North 3.2 km/h 4.8 km/h 86% 0 mm 0 W/m2
02:40 14.6 °C 12.3 °C 1006.3 hPa WNW 3.2 km/h 6.4 km/h 86% 0 mm 0 W/m2
02:45 14.6 °C 12.3 °C 1006.3 hPa North 3.2 km/h 6.4 km/h 86% 0 mm 0 W/m2
02:50 14.6 °C 12.3 °C 1006.3 hPa WNW 3.2 km/h 9.7 km/h 86% 0 mm 0 W/m2
02:55 14.6 °C 12.2 °C 1006.3 hPa North 4.8 km/h 11.3 km/h 86% 0 mm 0 W/m2
03:00 14.5 °C 12.2 °C 1006.3 hPa ENE 4.8 km/h 4.8 km/h 86% 3.3 mm 0 W/m2
03:05 14.4 °C 12.1 °C 1006.3 hPa West 4.8 km/h 6.4 km/h 86% 5.08 mm 0 W/m2
03:10 14.4 °C 12.3 °C 1006.3 hPa NNW 6.4 km/h 6.4 km/h 87% 2.03 mm 0 W/m2
03:15 14.3 °C 12.2 °C 1006.3 hPa NW 6.4 km/h 11.3 km/h 87% 1.27 mm 0 W/m2
03:20 14.2 °C 12.1 °C 1006 hPa NNE 6.4 km/h 6.4 km/h 87% 1.02 mm 0 W/m2
03:25 14.1 °C 12 °C 1005.6 hPa NNW 6.4 km/h 6.4 km/h 87% 1.02 mm 0 W/m2
03:30 14 °C 11.9 °C 1005.6 hPa NW 6.4 km/h 14.5 km/h 87% 1.02 mm 0 W/m2
03:35 13.9 °C 12 °C 1005.6 hPa NW 6.4 km/h 14.5 km/h 88% 1.02 mm 0 W/m2
03:40 13.8 °C 11.9 °C 1005.6 hPa NW 6.4 km/h 6.4 km/h 88% 0 mm 0 W/m2
03:45 13.7 °C 11.7 °C 1006 hPa WNW 6.4 km/h 6.4 km/h 88% 0 mm 0 W/m2
03:50 13.5 °C 11.4 °C 1006 hPa NW 9.7 km/h 9.7 km/h 87% 0 mm 0 W/m2
03:55 12.8 °C 10 °C 1005.6 hPa NW 12.9 km/h 17.7 km/h 83% 0 mm 0 W/m2
04:00 12.4 °C 9.6 °C 1005.3 hPa NNW 14.5 km/h 14.5 km/h 83% 0 mm 0 W/m2
04:05 12.2 °C 9.4 °C 1005.6 hPa NW 14.5 km/h 14.5 km/h 83% 0 mm 0 W/m2
04:10 11.9 °C 9.2 °C 1005.6 hPa West 11.3 km/h 19.3 km/h 83% 0 mm 0 W/m2
04:15 11.9 °C 9.4 °C 1006 hPa NW 11.3 km/h 19.3 km/h 85% 0 mm 0 W/m2
04:20 11.8 °C 9.4 °C 1006 hPa NNW 11.3 km/h 24.1 km/h 85% 0 mm 0 W/m2
04:25 11.6 °C 9 °C 1006 hPa WNW 11.3 km/h 24.1 km/h 84% 0 mm 0 W/m2
04:30 11.4 °C 8.8 °C 1006.3 hPa NW 9.7 km/h 14.5 km/h 84% 0 mm 0 W/m2
04:35 11.3 °C 8.7 °C 1006 hPa NW 11.3 km/h 14.5 km/h 84% 2.29 mm 0 W/m2
04:40 11.2 °C 8.6 °C 1006.3 hPa WNW 11.3 km/h 11.3 km/h 84% 3.3 mm 0 W/m2
04:45 11 °C 8.4 °C 1006.3 hPa NW 9.7 km/h 17.7 km/h 84% 3.81 mm 0 W/m2
04:50 10.9 °C 8.5 °C 1006.3 hPa NW 11.3 km/h 11.3 km/h 85% 3.05 mm 0 W/m2
04:55 10.9 °C 8.5 °C 1006.3 hPa WNW 11.3 km/h 17.7 km/h 85% 1.78 mm 0 W/m2
05:00 11 °C 8.7 °C 1006.3 hPa WSW 11.3 km/h 11.3 km/h 86% 1.78 mm 0 W/m2
05:05 11.1 °C 9.1 °C 1006.3 hPa NNW 9.7 km/h 11.3 km/h 87% 1.52 mm 0 W/m2
05:10 11.2 °C 9.3 °C 1006 hPa NW 8 km/h 14.5 km/h 88% 1.02 mm 0 W/m2
05:15 11.3 °C 9.4 °C 1006 hPa West 9.7 km/h 14.5 km/h 88% 0 mm 0 W/m2
05:20 11.3 °C 9.4 °C 1006.3 hPa NNW 9.7 km/h 16.1 km/h 88% 0 mm 0 W/m2
05:25 11.2 °C 9.1 °C 1006 hPa West 8 km/h 16.1 km/h 87% 0 mm 0 W/m2
05:30 11.2 °C 9.1 °C 1006.3 hPa WNW 8 km/h 8 km/h 87% 1.02 mm 0 W/m2
05:35 11.2 °C 8.9 °C 1006.3 hPa WSW 8 km/h 8 km/h 86% 1.02 mm 0 W/m2
05:40 11.2 °C 8.9 °C 1006.3 hPa NW 8 km/h 17.7 km/h 86% 1.02 mm 0 W/m2
05:45 11.2 °C 8.9 °C 1006.3 hPa NE 9.7 km/h 17.7 km/h 86% 0 mm 0 W/m2
05:50 11.2 °C 8.9 °C 1006.3 hPa WSW 8 km/h 8 km/h 86% 0 mm 0 W/m2
05:55 11.2 °C 8.7 °C 1006.3 hPa NNE 6.4 km/h 8 km/h 85% 0 mm 0 W/m2
06:00 11.2 °C 8.7 °C 1006.3 hPa NNW 6.4 km/h 8 km/h 85% 0 mm 0 W/m2
06:05 11.1 °C 8.4 °C 1006 hPa WNW 6.4 km/h 12.9 km/h 84% 1.27 mm 0 W/m2
06:10 11.1 °C 8.7 °C 1006 hPa West 8 km/h 8 km/h 85% 1.27 mm 0 W/m2
06:15 11.2 °C 8.9 °C 1006 hPa NNW 8 km/h 8 km/h 86% 1.27 mm 0 W/m2
06:20 11.2 °C 8.9 °C 1006.3 hPa NW 8 km/h 9.7 km/h 86% 1.27 mm 0 W/m2
06:25 11 °C 8.6 °C 1006.3 hPa NNW 8 km/h 9.7 km/h 85% 1.27 mm 0 W/m2
06:30 11 °C 8.6 °C 1006.3 hPa NNW 8 km/h 9.7 km/h 85% 1.02 mm 0 W/m2
06:35 10.9 °C 8.3 °C 1006.3 hPa NE 8 km/h 9.7 km/h 84% 1.02 mm 0 W/m2
06:40 10.9 °C 8.3 °C 1006.7 hPa SW 8 km/h 8 km/h 84% 1.78 mm 0 W/m2
06:45 10.9 °C 8.4 °C 1006.3 hPa WSW 8 km/h 8 km/h 85% 2.29 mm 0 W/m2
06:50 10.9 °C 8.4 °C 1006.3 hPa NW 6.4 km/h 6.4 km/h 85% 2.29 mm 0 W/m2
06:55 10.9 °C 8.4 °C 1006.7 hPa NNW 4.8 km/h 9.7 km/h 85% 1.78 mm 0 W/m2
07:00 10.8 °C 8.4 °C 1006.7 hPa NW 4.8 km/h 9.7 km/h 85% 1.78 mm 0 W/m2
07:05 10.8 °C 8.4 °C 1006.7 hPa NE 4.8 km/h 9.7 km/h 85% 2.29 mm 0 W/m2
07:10 10.8 °C 8.3 °C 1006.7 hPa NW 4.8 km/h 4.8 km/h 85% 1.52 mm 0 W/m2
07:15 10.7 °C 8.1 °C 1006.7 hPa NW 4.8 km/h 8 km/h 84% 1.52 mm 0 W/m2
07:20 10.7 °C 8.1 °C 1006.7 hPa North 4.8 km/h 4.8 km/h 84% 1.52 mm 0 W/m2
07:25 10.6 °C 8 °C 1006.3 hPa NNW 3.2 km/h 4.8 km/h 84% 1.02 mm 0 W/m2
07:30 10.6 °C 8.2 °C 1006.3 hPa WNW 3.2 km/h 4.8 km/h 85% 0 mm 0 W/m2
07:35 10.6 °C 8.2 °C 1006.3 hPa NE 3.2 km/h 4.8 km/h 85% 0 mm 0 W/m2
07:40 10.6 °C 8.2 °C 1006.3 hPa NW 3.2 km/h 6.4 km/h 85% 0 mm 0 W/m2
07:45 10.6 °C 8.2 °C 1006.3 hPa NNW 3.2 km/h 6.4 km/h 85% 0 mm 0 W/m2
07:50 10.7 °C 8.4 °C 1006.3 hPa NNW 3.2 km/h 9.7 km/h 86% 0 mm 0 W/m2
07:55 10.6 °C 8.4 °C 1006.3 hPa West 3.2 km/h 9.7 km/h 86% 0 mm 0 W/m2
08:00 10.7 °C 8.4 °C 1006 hPa WNW 3.2 km/h 6.4 km/h 86% 0 mm 0 W/m2
08:05 10.7 °C 8.4 °C 1006 hPa NW 3.2 km/h 6.4 km/h 86% 0 mm 0 W/m2
08:10 10.8 °C 8.6 °C 1006.3 hPa WNW 3.2 km/h 6.4 km/h 86% 0 mm 5 W/m2
08:15 10.8 °C 8.8 °C 1006.3 hPa West 4.8 km/h 6.4 km/h 87% 0 mm 5 W/m2
08:20 10.9 °C 8.9 °C 1006.3 hPa NNW 4.8 km/h 6.4 km/h 87% 0 mm 9 W/m2
08:25 11 °C 8.9 °C 1006.3 hPa West 6.4 km/h 8 km/h 87% 0 mm 14 W/m2
08:30 11.1 °C 9 °C 1006.3 hPa NW 4.8 km/h 4.8 km/h 87% 0 mm 21 W/m2
08:35 11.1 °C 9.1 °C 1006.3 hPa NW 4.8 km/h 4.8 km/h 87% 0 mm 28 W/m2
08:40 11.2 °C 8.9 °C 1006.3 hPa WSW 4.8 km/h 6.4 km/h 86% 0 mm 26 W/m2
08:45 11.2 °C 8.9 °C 1006.3 hPa NW 4.8 km/h 8 km/h 86% 0 mm 39 W/m2
08:50 11.3 °C 9 °C 1006.3 hPa NW 6.4 km/h 8 km/h 86% 0 mm 46 W/m2
08:55 11.3 °C 9.1 °C 1006.7 hPa West 4.8 km/h 8 km/h 86% 0 mm 60 W/m2
09:00 11.4 °C 8.9 °C 1006.7 hPa West 6.4 km/h 9.7 km/h 85% 0 mm 56 W/m2
09:05 11.5 °C 9.2 °C 1006.7 hPa West 6.4 km/h 9.7 km/h 86% 0 mm 74 W/m2
09:10 11.5 °C 9.1 °C 1006.7 hPa NNW 6.4 km/h 6.4 km/h 85% 0 mm 76 W/m2
09:15 11.6 °C 9 °C 1006.7 hPa NNW 6.4 km/h 9.7 km/h 84% 0 mm 37 W/m2
09:20 11.7 °C 9.1 °C 1006.7 hPa NW 8 km/h 8 km/h 84% 0 mm 33 W/m2
09:25 11.7 °C 8.9 °C 1006.7 hPa West 8 km/h 8 km/h 83% 0 mm 44 W/m2
09:30 11.7 °C 8.7 °C 1006.3 hPa NW 8 km/h 9.7 km/h 82% 0 mm 83 W/m2
09:35 11.8 °C 9.1 °C 1006.3 hPa WNW 8 km/h 9.7 km/h 83% 0 mm 65 W/m2
09:40 12 °C 9.2 °C 1006.3 hPa NW 8 km/h 8 km/h 83% 0 mm 33 W/m2
09:45 12.1 °C 9.1 °C 1006.3 hPa WNW 8 km/h 8 km/h 82% 0 mm 139 W/m2
09:50 12.1 °C 9.1 °C 1006.3 hPa NW 8 km/h 8 km/h 82% 0 mm 54 W/m2
09:55 12.2 °C 9.2 °C 1006.3 hPa NNW 8 km/h 8 km/h 82% 0 mm 42 W/m2
10:00 12.3 °C 9.3 °C 1006.3 hPa WNW 8 km/h 9.7 km/h 82% 0 mm 37 W/m2
10:05 12.4 °C 9.4 °C 1006.7 hPa West 9.7 km/h 12.9 km/h 82% 0 mm 47 W/m2
10:10 12.5 °C 9.5 °C 1006.7 hPa WSW 9.7 km/h 11.3 km/h 82% 0 mm 42 W/m2
10:15 12.6 °C 9.4 °C 1006.7 hPa NW 9.7 km/h 11.3 km/h 81% 0 mm 40 W/m2
10:20 12.6 °C 9.4 °C 1006.7 hPa NW 9.7 km/h 20.9 km/h 81% 0 mm 44 W/m2
10:25 12.7 °C 9.5 °C 1006.7 hPa WNW 9.7 km/h 20.9 km/h 81% 0 mm 47 W/m2
10:30 12.7 °C 9.5 °C 1006.7 hPa NNW 9.7 km/h 9.7 km/h 81% 0 mm 53 W/m2
10:35 12.8 °C 9.6 °C 1006.7 hPa NW 9.7 km/h 9.7 km/h 81% 0 mm 44 W/m2
10:40 12.7 °C 9.3 °C 1006.7 hPa West 9.7 km/h 9.7 km/h 80% 0 mm 51 W/m2
10:45 12.8 °C 9.6 °C 1006.7 hPa NW 9.7 km/h 9.7 km/h 81% 0 mm 56 W/m2
10:50 12.8 °C 9.6 °C 1006.7 hPa West 9.7 km/h 9.7 km/h 81% 0 mm 51 W/m2
10:55 12.9 °C 9.7 °C 1006.7 hPa WSW 8 km/h 9.7 km/h 81% 0 mm 49 W/m2
11:00 12.9 °C 9.5 °C 1007 hPa WNW 8 km/h 19.3 km/h 80% 0 mm 44 W/m2
11:05 12.9 °C 9.3 °C 1007 hPa WNW 9.7 km/h 19.3 km/h 79% 0 mm 44 W/m2
11:10 12.9 °C 9.2 °C 1007 hPa NW 9.7 km/h 9.7 km/h 78% 0 mm 40 W/m2
11:15 12.9 °C 9.2 °C 1007 hPa NW 9.7 km/h 14.5 km/h 78% 0 mm 47 W/m2
11:20 13 °C 9.3 °C 1007 hPa WSW 9.7 km/h 9.7 km/h 78% 0 mm 74 W/m2
11:25 13 °C 9.1 °C 1007 hPa NNW 9.7 km/h 9.7 km/h 77% 0 mm 44 W/m2
11:30 13 °C 8.7 °C 1007 hPa NNW 11.3 km/h 11.3 km/h 75% 0 mm 42 W/m2
11:35 13.1 °C 8.7 °C 1007.3 hPa WNW 11.3 km/h 11.3 km/h 75% 0 mm 62 W/m2
11:40 13.1 °C 8.8 °C 1007.3 hPa WSW 11.3 km/h 11.3 km/h 75% 0 mm 77 W/m2
11:45 13.3 °C 8.6 °C 1007.3 hPa WSW 9.7 km/h 11.3 km/h 73% 0 mm 60 W/m2
11:50 13.4 °C 8.8 °C 1007.3 hPa NW 9.7 km/h 11.3 km/h 74% 0 mm 91 W/m2
11:55 13.4 °C 8.4 °C 1007.3 hPa North 11.3 km/h 11.3 km/h 72% 0 mm 113 W/m2
12:00 13.4 °C 8.1 °C 1007.3 hPa SSW 11.3 km/h 11.3 km/h 70% 0 mm 69 W/m2
12:05 13.4 °C 8 °C 1007.3 hPa WNW 9.7 km/h 11.3 km/h 70% 0 mm 555 W/m2
12:10 13.4 °C 7.6 °C 1007.7 hPa West 11.3 km/h 16.1 km/h 68% 0 mm 563 W/m2
12:15 13.5 °C 7.9 °C 1007.7 hPa WSW 11.3 km/h 16.1 km/h 69% 0 mm 598 W/m2
12:20 13.5 °C 7.7 °C 1007.7 hPa West 9.7 km/h 9.7 km/h 68% 0 mm 123 W/m2
12:25 13.5 °C 7.9 °C 1007.7 hPa NNW 8 km/h 9.7 km/h 69% 0 mm 88 W/m2
12:30 13.4 °C 7.7 °C 1007.7 hPa West 8 km/h 8 km/h 68% 0 mm 72 W/m2
12:35 13.3 °C 7.3 °C 1007.7 hPa WNW 9.7 km/h 11.3 km/h 67% 0 mm 79 W/m2
12:40 13.2 °C 7.2 °C 1007.7 hPa WNW 11.3 km/h 11.3 km/h 67% 0 mm 90 W/m2
12:45 13.2 °C 7.2 °C 1007.7 hPa NNW 11.3 km/h 11.3 km/h 67% 0 mm 613 W/m2
12:50 13.3 °C 7.6 °C 1007.7 hPa NW 11.3 km/h 17.7 km/h 68% 0 mm 664 W/m2
12:55 13.5 °C 7.7 °C 1007.7 hPa WSW 11.3 km/h 17.7 km/h 68% 0 mm 178 W/m2
13:00 13.6 °C 7.8 °C 1007.7 hPa WNW 9.7 km/h 9.7 km/h 68% 0 mm 171 W/m2
13:05 13.5 °C 7.9 °C 1007.7 hPa NNW 8 km/h 11.3 km/h 69% 0 mm 185 W/m2
13:10 13.4 °C 7.7 °C 1007.7 hPa West 9.7 km/h 22.5 km/h 68% 0 mm 202 W/m2
13:15 13.4 °C 7.7 °C 1008 hPa NNW 9.7 km/h 22.5 km/h 68% 0 mm 246 W/m2
13:20 13.4 °C 7.4 °C 1007.7 hPa West 9.7 km/h 9.7 km/h 67% 0 mm 316 W/m2
13:25 13.5 °C 7.3 °C 1007.7 hPa West 11.3 km/h 11.3 km/h 66% 0 mm 250 W/m2
13:30 13.6 °C 7.3 °C 1007.7 hPa NW 9.7 km/h 9.7 km/h 66% 0 mm 176 W/m2
13:35 13.5 °C 7.3 °C 1007.7 hPa NE 8 km/h 11.3 km/h 66% 0 mm 90 W/m2
13:40 13.6 °C 7.1 °C 1007.7 hPa South 8 km/h 8 km/h 65% 0 mm 601 W/m2
13:45 13.6 °C 6.9 °C 1007.7 hPa WSW 9.7 km/h 11.3 km/h 64% 0 mm 643 W/m2
13:50 13.8 °C 7.1 °C 1007.7 hPa North 8 km/h 14.5 km/h 64% 0 mm 696 W/m2
13:55 13.9 °C 7.2 °C 1007.7 hPa SW 8 km/h 14.5 km/h 64% 0 mm 403 W/m2
14:00 14 °C 7.5 °C 1007.7 hPa NW 6.4 km/h 8 km/h 65% 0 mm 202 W/m2
14:05 14.1 °C 7.6 °C 1007.7 hPa WNW 6.4 km/h 11.3 km/h 65% 0 mm 269 W/m2
14:10 14.1 °C 7.2 °C 1007.7 hPa West 8 km/h 11.3 km/h 63% 0 mm 659 W/m2
14:15 14.3 °C 7.6 °C 1007.7 hPa NW 9.7 km/h 11.3 km/h 64% 0 mm 253 W/m2
14:20 14.5 °C 7.8 °C 1007.7 hPa WSW 8 km/h 9.7 km/h 64% 0 mm 650 W/m2
14:25 14.7 °C 7.7 °C 1007.7 hPa WNW 8 km/h 14.5 km/h 63% 0 mm 178 W/m2
14:30 14.6 °C 7.4 °C 1007.7 hPa WNW 9.7 km/h 9.7 km/h 62% 0 mm 148 W/m2
14:35 14.5 °C 7.1 °C 1007.7 hPa North 9.7 km/h 9.7 km/h 61% 0 mm 88 W/m2
14:40 14.3 °C 7.1 °C 1007.7 hPa NW 8 km/h 9.7 km/h 62% 0 mm 91 W/m2
14:45 14.2 °C 7.2 °C 1008 hPa West 9.7 km/h 11.3 km/h 63% 0 mm 98 W/m2
14:50 14 °C 6.8 °C 1008 hPa West 9.7 km/h 12.9 km/h 62% 0 mm 107 W/m2
14:55 13.8 °C 6.7 °C 1008 hPa West 11.3 km/h 12.9 km/h 62% 0 mm 128 W/m2
15:00 13.8 °C 6.8 °C 1008 hPa WSW 11.3 km/h 11.3 km/h 63% 0 mm 156 W/m2
15:05 13.8 °C 7.1 °C 1008 hPa SW 9.7 km/h 11.3 km/h 64% 0 mm 172 W/m2
15:10 13.8 °C 7.3 °C 1008 hPa NNW 8 km/h 11.3 km/h 65% 0 mm 197 W/m2
15:15 13.8 °C 7.3 °C 1008 hPa NNW 8 km/h 11.3 km/h 65% 0 mm 213 W/m2
15:20 13.8 °C 7.1 °C 1008.4 hPa WNW 8 km/h 9.7 km/h 64% 0 mm 232 W/m2
15:25 13.8 °C 6.9 °C 1008.4 hPa West 9.7 km/h 14.5 km/h 63% 0 mm 213 W/m2
15:30 13.8 °C 7.1 °C 1008.4 hPa NW 9.7 km/h 12.9 km/h 64% 0 mm 176 W/m2
15:35 13.9 °C 7.2 °C 1008.4 hPa NNW 8 km/h 12.9 km/h 64% 0 mm 141 W/m2
15:40 13.8 °C 7.1 °C 1008.4 hPa WSW 8 km/h 22.5 km/h 64% 0 mm 128 W/m2
15:45 13.8 °C 7.4 °C 1008.4 hPa WNW 9.7 km/h 22.5 km/h 65% 0 mm 148 W/m2
15:50 13.8 °C 7.1 °C 1008.4 hPa NNW 9.7 km/h 9.7 km/h 64% 0 mm 172 W/m2
15:55 13.8 °C 7.1 °C 1008.4 hPa SW 9.7 km/h 9.7 km/h 64% 0 mm 181 W/m2
16:00 13.7 °C 6.3 °C 1008.7 hPa West 9.7 km/h 9.7 km/h 61% 0 mm 162 W/m2
16:05 13.7 °C 6.5 °C 1008.4 hPa NW 8 km/h 12.9 km/h 62% 0 mm 158 W/m2
16:10 13.7 °C 6.8 °C 1008.7 hPa West 8 km/h 8 km/h 63% 0 mm 134 W/m2
16:15 13.7 °C 7 °C 1008.7 hPa West 8 km/h 8 km/h 64% 0 mm 98 W/m2
16:20 13.6 °C 7.2 °C 1008.7 hPa NW 8 km/h 8 km/h 65% 0 mm 62 W/m2
16:25 13.6 °C 7.3 °C 1008.7 hPa WNW 9.7 km/h 9.7 km/h 66% 0 mm 65 W/m2
16:30 13.5 °C 7.1 °C 1008.7 hPa West 9.7 km/h 9.7 km/h 65% 0 mm 53 W/m2
16:35 13.4 °C 7.4 °C 1008.7 hPa NW 9.7 km/h 16.1 km/h 67% 0 mm 46 W/m2
16:40 13.3 °C 7.3 °C 1008.7 hPa WNW 9.7 km/h 14.5 km/h 67% 0 mm 37 W/m2
16:45 13.3 °C 7.3 °C 1009 hPa WNW 8 km/h 14.5 km/h 67% 0 mm 35 W/m2
16:50 13.2 °C 7.4 °C 1009 hPa WSW 8 km/h 12.9 km/h 68% 0 mm 32 W/m2
16:55 13.2 °C 7.2 °C 1009 hPa NW 8 km/h 12.9 km/h 67% 0 mm 25 W/m2
17:00 13.1 °C 7.5 °C 1009 hPa West 9.7 km/h 20.9 km/h 69% 0 mm 26 W/m2
17:05 13 °C 7.7 °C 1009 hPa West 9.7 km/h 22.5 km/h 70% 0 mm 28 W/m2
17:10 12.8 °C 7.5 °C 1009 hPa NW 8 km/h 8 km/h 70% 0 mm 19 W/m2
17:15 12.8 °C 7.4 °C 1009 hPa NW 8 km/h 11.3 km/h 70% 0 mm 35 W/m2
17:20 12.7 °C 7.1 °C 1009.4 hPa WSW 8 km/h 8 km/h 69% 0 mm 30 W/m2
17:25 12.7 °C 7.1 °C 1009.4 hPa NNW 11.3 km/h 11.3 km/h 69% 0 mm 35 W/m2
17:30 12.7 °C 6.9 °C 1009.4 hPa SW 11.3 km/h 11.3 km/h 68% 0 mm 26 W/m2
17:35 12.7 °C 6.9 °C 1009.4 hPa NW 9.7 km/h 11.3 km/h 68% 0 mm 28 W/m2
17:40 12.7 °C 6.9 °C 1009.4 hPa SW 9.7 km/h 9.7 km/h 68% 0 mm 33 W/m2
17:45 12.7 °C 6.7 °C 1009.4 hPa West 9.7 km/h 19.3 km/h 67% 0 mm 32 W/m2
17:50 12.6 °C 6.4 °C 1009.4 hPa NNW 9.7 km/h 9.7 km/h 66% 0 mm 33 W/m2
17:55 12.6 °C 6.4 °C 1009.7 hPa NW 9.7 km/h 11.3 km/h 66% 0 mm 40 W/m2
18:00 12.6 °C 6.4 °C 1009.7 hPa North 9.7 km/h 9.7 km/h 66% 0 mm 19 W/m2
18:05 12.6 °C 6.8 °C 1009.7 hPa WSW 9.7 km/h 9.7 km/h 68% 0 mm 12 W/m2
Sand Point, Michigan, USA
Compliments of Weather Underground - 2 mb